Time;durP1;ratioP1;P1;durP2;ratioP2;P2;SDS_P1;SDS_P2;PMS_P1;PMS_P2;Temp;Humidity;BMP_temperature;BMP_pressure;BME280_temperature;BME280_humidity;BME280_pressure;Samples;Min_cycle;Max_cycle;Signal;HPM_P1;HPM_P2
2021/12/03 00:00:49;;;;;;;25.27;13.40;;;;;;;-1.54;100.00;100652.16;5073745;28;20056;-76
2021/12/03 00:03:15;;;;;;;23.65;13.73;;;;;;;-1.55;100.00;100652.41;5074630;28;20036;-76
2021/12/03 00:05:41;;;;;;;22.27;12.63;;;;;;;-1.52;100.00;100646.53;5075662;28;20393;-76
2021/12/03 00:08:06;;;;;;;23.92;13.60;;;;;;;-1.55;100.00;100644.22;5057093;28;20110;-76
2021/12/03 00:10:34;;;;;;;21.23;12.10;;;;;;;-1.57;100.00;100649.88;5072783;28;20107;-76
2021/12/03 00:12:59;;;;;;;23.98;12.88;;;;;;;-1.60;100.00;100653.84;5064390;28;20036;-76
2021/12/03 00:15:26;;;;;;;20.33;12.38;;;;;;;-1.58;100.00;100649.03;5060364;28;20029;-77
2021/12/03 00:17:52;;;;;;;22.27;12.35;;;;;;;-1.59;100.00;100651.97;5084043;28;20036;-76
2021/12/03 00:20:18;;;;;;;23.65;12.25;;;;;;;-1.60;100.00;100659.28;5074906;28;20116;-76
2021/12/03 00:22:44;;;;;;;25.63;12.98;;;;;;;-1.59;100.00;100647.38;5072434;28;20036;-76
2021/12/03 00:25:10;;;;;;;24.02;12.82;;;;;;;-1.61;100.00;100635.00;5078371;28;20491;-76
2021/12/03 00:27:36;;;;;;;22.80;12.57;;;;;;;-1.62;100.00;100636.03;5070844;28;20037;-76
2021/12/03 00:30:01;;;;;;;21.38;11.93;;;;;;;-1.62;100.00;100615.09;5069085;28;20044;-76
2021/12/03 00:32:27;;;;;;;22.23;12.73;;;;;;;-1.59;100.00;100628.31;5083532;28;20055;-76
2021/12/03 00:34:52;;;;;;;23.40;12.50;;;;;;;-1.56;100.00;100632.50;5082408;28;20481;-76
2021/12/03 00:37:18;;;;;;;20.05;12.35;;;;;;;-1.50;100.00;100618.03;5079998;28;20032;-76
2021/12/03 00:39:43;;;;;;;20.42;12.82;;;;;;;-1.46;100.00;100615.69;5057656;28;20043;-75
2021/12/03 00:42:14;;;;;;;21.08;12.15;;;;;;;-1.45;100.00;100633.72;5075681;28;20032;-76
2021/12/03 00:44:39;;;;;;;22.77;12.38;;;;;;;-1.43;100.00;100635.19;5084368;28;20032;-76
2021/12/03 00:47:05;;;;;;;18.33;11.60;;;;;;;-1.39;100.00;100635.63;5079507;28;20032;-76
2021/12/03 00:49:30;;;;;;;21.00;12.27;;;;;;;-1.38;100.00;100629.94;5079775;28;20031;-76
2021/12/03 00:51:56;;;;;;;17.92;11.43;;;;;;;-1.33;100.00;100640.19;5089902;28;20032;-76
2021/12/03 00:54:21;;;;;;;20.65;11.65;;;;;;;-1.28;100.00;100642.28;5060060;28;20040;-76
2021/12/03 00:56:47;;;;;;;22.42;11.23;;;;;;;-1.23;100.00;100632.41;5077529;28;20062;-77
2021/12/03 00:59:13;;;;;;;20.30;11.88;;;;;;;-1.22;100.00;100639.56;5043761;28;20025;-76
2021/12/03 01:01:39;;;;;;;19.75;11.52;;;;;;;-1.21;100.00;100637.66;5078220;28;20024;-76
2021/12/03 01:04:05;;;;;;;17.00;10.70;;;;;;;-1.17;100.00;100637.03;5078383;28;20036;-76
2021/12/03 01:06:30;;;;;;;18.70;10.63;;;;;;;-1.15;100.00;100634.06;5079092;28;20385;-76
2021/12/03 01:08:55;;;;;;;17.88;10.10;;;;;;;-1.12;100.00;100631.75;5065878;28;20024;-76
2021/12/03 01:11:21;;;;;;;18.58;11.13;;;;;;;-1.10;100.00;100631.53;5067882;28;20027;-76
2021/12/03 01:13:47;;;;;;;19.17;10.75;;;;;;;-1.07;100.00;100630.28;5083954;28;20033;-76
2021/12/03 01:16:14;;;;;;;17.95;10.88;;;;;;;-1.05;100.00;100620.00;5059103;28;20573;-76
2021/12/03 01:18:39;;;;;;;15.90;10.80;;;;;;;-1.01;100.00;100622.06;5084973;28;20034;-76
2021/12/03 01:21:05;;;;;;;16.67;10.15;;;;;;;-0.97;100.00;100622.50;5047988;28;20025;-76
2021/12/03 01:23:31;;;;;;;16.77;10.52;;;;;;;-0.96;100.00;100610.53;5083304;28;20390;-76
2021/12/03 01:25:56;;;;;;;18.35;10.05;;;;;;;-0.91;100.00;100605.28;5078851;28;20431;-76
2021/12/03 01:28:22;;;;;;;18.42;10.60;;;;;;;-0.87;100.00;100613.84;5065951;28;20044;-76
2021/12/03 01:30:48;;;;;;;20.05;10.80;;;;;;;-0.87;100.00;100598.31;5075323;28;20492;-76
2021/12/03 01:33:13;;;;;;;18.02;10.68;;;;;;;-0.84;100.00;100594.31;5060019;28;20468;-76
2021/12/03 01:35:39;;;;;;;21.60;10.90;;;;;;;-0.80;100.00;100593.69;5059135;28;20517;-76
2021/12/03 01:38:05;;;;;;;15.57;10.25;;;;;;;-0.77;100.00;100600.59;5086074;28;20032;-76
2021/12/03 01:40:31;;;;;;;18.58;10.05;;;;;;;-0.73;100.00;100597.19;5044431;28;20358;-76
2021/12/03 01:42:57;;;;;;;17.98;10.38;;;;;;;-0.70;100.00;100595.94;5066996;28;20123;-76
2021/12/03 01:45:25;;;;;;;16.10;10.10;;;;;;;-0.67;100.00;100595.50;5080628;28;20106;-76
2021/12/03 01:47:50;;;;;;;18.75;9.55;;;;;;;-0.64;100.00;100594.22;5061251;28;20464;-76
2021/12/03 01:50:16;;;;;;;16.30;9.80;;;;;;;-0.61;100.00;100593.78;5084546;28;20029;-76
2021/12/03 01:52:42;;;;;;;15.00;9.80;;;;;;;-0.59;100.00;100591.66;5061736;28;20032;-76
2021/12/03 01:55:09;;;;;;;17.35;9.68;;;;;;;-0.57;100.00;100579.50;5051773;28;20020;-76
2021/12/03 01:57:35;;;;;;;16.05;9.30;;;;;;;-0.54;100.00;100570.03;5050324;28;20071;-76
2021/12/03 02:00:00;;;;;;;13.38;9.05;;;;;;;-0.50;100.00;100587.66;5078664;28;20024;-76
2021/12/03 02:02:26;;;;;;;13.05;8.68;;;;;;;-0.48;100.00;100585.53;5076898;28;20055;-76
2021/12/03 02:04:52;;;;;;;17.10;8.93;;;;;;;-0.46;100.00;100583.41;5075961;28;20044;-76
2021/12/03 02:07:17;;;;;;;15.05;8.30;;;;;;;-0.43;100.00;100585.69;5061473;28;20436;-77
2021/12/03 02:09:43;;;;;;;15.27;8.85;;;;;;;-0.40;100.00;100584.44;5084400;28;20435;-76
2021/12/03 02:12:09;;;;;;;11.90;7.82;;;;;;;-0.39;100.00;100584.22;5076002;28;20054;-76
2021/12/03 02:14:34;;;;;;;13.18;8.40;;;;;;;-0.36;100.00;100583.78;5039880;28;20035;-77
2021/12/03 02:17:00;;;;;;;12.82;8.57;;;;;;;-0.34;100.00;100589.84;5079067;28;20086;-76
2021/12/03 02:19:26;;;;;;;12.57;7.70;;;;;;;-0.29;100.00;100592.75;5076782;28;20623;-77
2021/12/03 02:21:51;;;;;;;11.70;7.88;;;;;;;-0.29;100.00;100587.28;5071151;28;20044;-77
2021/12/03 02:24:21;;;;;;;14.63;7.55;;;;;;;-0.26;100.00;100586.84;5060144;28;20024;-76
2021/12/03 02:26:46;;;;;;;13.43;8.77;;;;;;;-0.26;100.00;100586.84;5070125;28;20060;-76
2021/12/03 02:29:12;;;;;;;12.70;8.07;;;;;;;-0.24;100.00;100587.47;5063720;28;20036;-76
2021/12/03 02:31:38;;;;;;;12.38;7.20;;;;;;;-0.19;100.00;100580.53;5082079;28;20076;-76
2021/12/03 02:34:03;;;;;;;13.00;7.40;;;;;;;-0.20;100.00;100576.94;5076846;28;20051;-76
2021/12/03 02:36:29;;;;;;;12.77;7.50;;;;;;;-0.17;100.00;100590.13;5072679;28;20031;-77
2021/12/03 02:38:54;;;;;;;13.55;8.35;;;;;;;-0.18;100.00;100583.00;5076705;28;20032;-77
2021/12/03 02:41:20;;;;;;;10.35;7.35;;;;;;;-0.15;100.00;100581.72;5077928;28;20455;-77
2021/12/03 02:43:45;;;;;;;14.73;7.78;;;;;;;-0.15;100.00;100582.56;5084744;28;20044;-77
2021/12/03 02:46:11;;;;;;;15.25;8.43;;;;;;;-0.12;100.00;100584.84;5063255;28;20025;-76
2021/12/03 02:48:37;;;;;;;9.95;7.18;;;;;;;-0.11;100.00;100574.75;5072731;28;20048;-77
2021/12/03 02:51:04;;;;;;;10.57;7.30;;;;;;;-0.09;100.00;100576.22;5039597;28;20557;-77
2021/12/03 02:53:29;;;;;;;11.40;7.00;;;;;;;-0.06;100.00;100574.94;5043896;28;20032;-76
2021/12/03 02:55:55;;;;;;;12.52;7.32;;;;;;;-0.07;100.00;100574.09;5077910;28;20036;-76
2021/12/03 02:58:21;;;;;;;13.30;7.20;;;;;;;-0.05;100.00;100571.16;5084336;28;20039;-76
2021/12/03 03:00:47;;;;;;;12.00;7.72;;;;;;;-0.03;100.00;100569.03;5055827;28;20117;-77
2021/12/03 03:03:12;;;;;;;11.90;7.65;;;;;;;-0.02;100.00;100563.34;5077210;28;20494;-77
2021/12/03 03:05:38;;;;;;;15.27;8.27;;;;;;;-0.03;100.00;100560.81;5075518;28;20075;-77
2021/12/03 03:08:04;;;;;;;16.33;8.27;;;;;;;-0.02;100.00;100557.06;5058205;28;20032;-76
2021/12/03 03:10:36;;;;;;;13.32;8.07;;;;;;;0.02;100.00;100555.53;5074732;28;20024;-77
2021/12/03 03:13:01;;;;;;;12.30;7.80;;;;;;;0.03;100.00;100549.03;5060100;28;20456;-77
2021/12/03 03:15:27;;;;;;;14.75;7.30;;;;;;;0.04;100.00;100542.50;5077217;28;20028;-77
2021/12/03 03:17:52;;;;;;;12.38;7.78;;;;;;;0.04;100.00;100541.69;5067957;28;20036;-77
2021/12/03 03:20:18;;;;;;;12.32;7.72;;;;;;;0.05;100.00;100535.97;5053599;28;20032;-77
2021/12/03 03:22:44;;;;;;;14.85;8.02;;;;;;;0.09;100.00;100534.47;5062093;28;20530;-77
2021/12/03 03:25:12;;;;;;;12.52;8.15;;;;;;;0.10;100.00;100527.94;5060053;28;20491;-77
2021/12/03 03:27:37;;;;;;;11.63;7.88;;;;;;;0.09;100.00;100525.47;5057707;28;20052;-78
2021/12/03 03:30:04;;;;;;;14.32;7.80;;;;;;;0.10;100.00;100521.66;5057979;28;20500;-77
2021/12/03 03:32:30;;;;;;;14.10;8.38;;;;;;;0.10;100.00;100522.50;5042172;28;20587;-77
2021/12/03 03:34:55;;;;;;;13.93;8.55;;;;;;;0.14;100.00;100531.91;5077705;28;20029;-77
2021/12/03 03:37:21;;;;;;;14.43;8.13;;;;;;;0.15;100.00;100519.91;5073053;28;20465;-77
2021/12/03 03:39:47;;;;;;;13.68;8.05;;;;;;;0.16;100.00;100528.94;5070008;28;20524;-77
2021/12/03 03:42:12;;;;;;;11.57;7.22;;;;;;;0.19;100.00;100518.41;5075930;28;20111;-77
2021/12/03 03:44:38;;;;;;;12.27;8.00;;;;;;;0.20;100.00;100524.72;5060697;28;20051;-77
2021/12/03 03:47:05;;;;;;;13.27;8.43;;;;;;;0.19;100.00;100521.13;5076478;28;20029;-77
2021/12/03 03:49:31;;;;;;;11.32;7.93;;;;;;;0.22;100.00;100512.50;5045200;28;20020;-77
2021/12/03 03:51:57;;;;;;;13.15;7.90;;;;;;;0.25;100.00;100510.38;5076472;28;20606;-76
2021/12/03 03:54:22;;;;;;;13.30;7.88;;;;;;;0.27;100.00;100502.78;5075056;28;20473;-77
2021/12/03 03:56:48;;;;;;;13.38;8.73;;;;;;;0.29;100.00;100500.66;5077388;28;20035;-77
2021/12/03 03:59:17;;;;;;;12.70;8.70;;;;;;;0.31;100.00;100501.28;5063356;28;20024;-76
2021/12/03 04:01:46;;;;;;;12.30;8.35;;;;;;;0.35;100.00;100497.03;5044731;28;20021;-76
2021/12/03 04:04:12;;;;;;;14.30;8.40;;;;;;;0.35;100.00;100500.59;5059127;28;20039;-76
2021/12/03 04:06:37;;;;;;;14.77;7.88;;;;;;;0.41;100.00;100498.84;5074676;28;20041;-77
2021/12/03 04:09:03;;;;;;;12.30;8.43;;;;;;;0.41;100.00;100496.09;5074170;28;20431;-77
2021/12/03 04:11:28;;;;;;;11.93;8.13;;;;;;;0.43;100.00;100502.19;5073703;28;20036;-76
2021/12/03 04:13:54;;;;;;;12.55;8.38;;;;;;;0.46;100.00;100507.19;5071123;28;20029;-76
2021/12/03 04:16:19;;;;;;;12.05;8.30;;;;;;;0.48;100.00;100496.06;5074732;28;20032;-77
2021/12/03 04:18:45;;;;;;;16.70;8.10;;;;;;;0.50;100.00;100500.19;5085267;28;20095;-76
2021/12/03 04:21:11;;;;;;;12.45;8.23;;;;;;;0.53;100.00;100497.03;5085597;28;20056;-77
2021/12/03 04:23:36;;;;;;;11.45;8.00;;;;;;;0.55;100.00;100494.06;5082208;28;20024;-77
2021/12/03 04:26:02;;;;;;;12.20;8.05;;;;;;;0.55;100.00;100488.59;5044590;28;20028;-76
2021/12/03 04:28:27;;;;;;;11.48;8.18;;;;;;;0.62;100.00;100490.19;5062034;28;20024;-77
2021/12/03 04:30:53;;;;;;;;;;;;;;;0.60;100.00;100497.78;5040249;28;20449;-76
2021/12/03 04:33:19;;;;;;;13.45;7.90;;;;;;;0.61;100.00;100482.22;5084931;28;19927;-77
2021/12/03 04:35:44;;;;;;;10.18;7.45;;;;;;;0.64;100.00;100481.75;5083101;28;20043;-76
2021/12/03 04:38:10;;;;;;;12.68;7.63;;;;;;;0.63;100.00;100469.97;5080690;28;20033;-77
2021/12/03 04:40:36;;;;;;;12.57;7.47;;;;;;;0.66;100.00;100468.69;5069608;28;20051;-77
2021/12/03 04:43:01;;;;;;;15.15;8.20;;;;;;;0.69;100.00;100459.19;5081070;28;20036;-76
2021/12/03 04:45:28;;;;;;;10.80;7.78;;;;;;;0.70;100.00;100458.13;5082087;28;20055;-76
2021/12/03 04:47:54;;;;;;;13.35;8.18;;;;;;;0.72;100.00;100450.53;5085807;28;20055;-77
2021/12/03 04:50:20;;;;;;;11.27;8.00;;;;;;;0.73;100.00;100444.03;5086096;28;20408;-77
2021/12/03 04:52:45;;;;;;;13.32;7.95;;;;;;;0.76;100.00;100438.09;5079530;28;20040;-77
2021/12/03 04:55:11;;;;;;;14.52;7.88;;;;;;;0.76;100.00;100438.09;5079663;28;20443;-77
2021/12/03 04:57:37;;;;;;;11.85;7.82;;;;;;;0.78;100.00;100435.94;5077848;28;20033;-76
2021/12/03 05:00:04;;;;;;;10.85;6.72;;;;;;;0.80;100.00;100434.66;5069766;28;20111;-76
2021/12/03 05:02:30;;;;;;;11.40;7.57;;;;;;;0.80;100.00;100431.09;5078161;28;20025;-76
2021/12/03 05:05:00;;;;;;;13.48;8.00;;;;;;;0.81;100.00;100425.41;5072915;28;20049;-77
2021/12/03 05:09:54;;;;;;;13.55;8.35;;;;;;;0.83;100.00;100425.97;5077064;28;20024;-77
2021/12/03 05:12:19;;;;;;;10.48;7.78;;;;;;;0.83;100.00;100423.25;5078877;28;20043;-77
2021/12/03 05:14:45;;;;;;;13.73;7.75;;;;;;;0.85;100.00;100409.34;5056157;28;20044;-77
2021/12/03 05:17:10;;;;;;;13.63;8.50;;;;;;;0.84;100.00;100405.78;5077985;28;20040;-77
2021/12/03 05:19:36;;;;;;;11.77;7.28;;;;;;;0.87;100.00;100402.59;5083184;28;20020;-76
2021/12/03 05:22:01;;;;;;;13.57;8.02;;;;;;;0.88;100.00;100390.56;5063858;28;20043;-76
2021/12/03 05:24:27;;;;;;;12.55;8.00;;;;;;;0.89;100.00;100384.06;5066437;28;20041;-77
2021/12/03 05:26:52;;;;;;;12.73;7.75;;;;;;;0.93;100.00;100381.69;5070345;28;20049;-77
2021/12/03 05:29:18;;;;;;;10.88;7.70;;;;;;;0.93;100.00;100370.75;5055589;28;20036;-77
2021/12/03 05:31:43;;;;;;;11.60;7.72;;;;;;;0.96;100.00;100364.81;5075208;28;20028;-77
2021/12/03 05:34:12;;;;;;;12.45;7.72;;;;;;;0.97;100.00;100371.09;5085489;28;20032;-77
2021/12/03 05:36:38;;;;;;;14.65;7.63;;;;;;;0.99;100.00;100367.06;5085947;28;20064;-77
2021/12/03 05:39:04;;;;;;;15.05;7.88;;;;;;;1.02;100.00;100363.84;5066606;28;20067;-77
2021/12/03 05:41:29;;;;;;;10.75;7.30;;;;;;;1.02;100.00;100365.75;5044382;28;20050;-77
2021/12/03 05:43:54;;;;;;;10.95;7.25;;;;;;;1.04;100.00;100355.44;5077821;28;20082;-77
2021/12/03 05:46:20;;;;;;;11.43;7.07;;;;;;;1.05;100.00;100357.91;5059974;28;20084;-77
2021/12/03 05:48:45;;;;;;;13.95;7.60;;;;;;;1.06;100.00;100365.06;5077622;28;20404;-78
2021/12/03 05:51:11;;;;;;;13.25;8.07;;;;;;;1.07;100.00;100355.78;5060802;28;20477;-77
2021/12/03 05:53:37;;;;;;;16.05;6.68;;;;;;;1.10;100.00;100370.91;5077228;28;20039;-77
2021/12/03 05:56:02;;;;;;;12.52;7.15;;;;;;;1.12;100.00;100374.22;5077424;28;20040;-77
2021/12/03 05:58:28;;;;;;;17.10;7.70;;;;;;;1.14;100.00;100371.25;5049997;28;20025;-78
2021/12/03 06:00:53;;;;;;;12.75;7.18;;;;;;;1.16;100.00;100369.13;5078809;28;20397;-77
2021/12/03 06:03:19;;;;;;;10.43;7.05;;;;;;;1.19;100.00;100363.16;5076987;28;20028;-77
2021/12/03 06:05:44;;;;;;;12.77;6.18;;;;;;;1.19;100.00;100357.69;5076165;28;20090;-77
2021/12/03 06:08:10;;;;;;;12.65;6.80;;;;;;;1.20;100.00;100365.69;5078917;28;20093;-77
2021/12/03 06:10:35;;;;;;;10.73;6.55;;;;;;;1.22;100.00;100373.66;5050833;28;20055;-77
2021/12/03 06:13:01;;;;;;;10.70;6.45;;;;;;;1.24;100.00;100366.88;5054802;28;20048;-77
2021/12/03 06:15:27;;;;;;;11.63;6.20;;;;;;;1.26;100.00;100355.69;5078633;28;20032;-78
2021/12/03 06:17:53;;;;;;;11.70;6.03;;;;;;;1.27;100.00;100352.72;5065723;28;20032;-78
2021/12/03 06:20:18;;;;;;;9.45;5.93;;;;;;;1.29;100.00;100344.28;5048577;28;20040;-77
2021/12/03 06:22:44;;;;;;;8.50;6.38;;;;;;;1.29;100.00;100336.06;5077893;28;20036;-77
2021/12/03 06:25:10;;;;;;;11.35;6.43;;;;;;;1.30;100.00;100324.88;5082656;28;20028;-78
2021/12/03 06:27:37;;;;;;;9.52;5.82;;;;;;;1.34;100.00;100314.31;5071869;28;20079;-78
2021/12/03 06:30:06;;;;;;;10.55;6.03;;;;;;;1.35;100.00;100305.03;5057813;28;20107;-78
2021/12/03 06:32:31;;;;;;;12.35;7.10;;;;;;;1.37;100.00;100302.88;5024695;28;20032;-78
2021/12/03 06:34:57;;;;;;;11.00;6.70;;;;;;;1.39;100.00;100291.69;5060533;28;20047;-78
2021/12/03 06:37:30;;;;;;;10.73;6.32;;;;;;;1.40;100.00;100285.97;5073952;28;20025;-78
2021/12/03 06:39:56;;;;;;;10.65;6.40;;;;;;;1.42;100.00;100280.25;5026753;28;20028;-78
2021/12/03 06:42:21;;;;;;;13.38;7.10;;;;;;;1.44;100.00;100291.81;5066837;28;20039;-78
2021/12/03 06:44:47;;;;;;;13.45;6.28;;;;;;;1.44;100.00;100281.69;5077276;28;20062;-78
2021/12/03 06:47:12;;;;;;;10.45;6.28;;;;;;;1.47;100.00;100274.91;5076959;28;20400;-78
2021/12/03 06:49:38;;;;;;;10.00;6.65;;;;;;;1.47;100.00;100270.25;5056809;28;20080;-78
2021/12/03 06:52:10;;;;;;;11.35;6.85;;;;;;;1.49;100.00;100259.91;5071270;28;20043;-78
2021/12/03 06:54:36;;;;;;;13.73;7.68;;;;;;;1.52;100.00;100264.91;5069298;28;20028;-77
2021/12/03 06:57:04;;;;;;;12.00;6.72;;;;;;;1.53;100.00;100247.41;5064007;28;20033;-77
2021/12/03 06:59:29;;;;;;;12.63;6.70;;;;;;;1.55;100.00;100250.72;5042003;28;20060;-78
2021/12/03 07:01:55;;;;;;;12.77;6.75;;;;;;;1.58;100.00;100249.41;5058900;28;20051;-77
2021/12/03 07:04:21;;;;;;;9.52;6.78;;;;;;;1.59;100.00;100237.41;5076875;28;20036;-78
2021/12/03 07:07:05;;;;;;;15.90;6.60;;;;;;;1.64;100.00;100228.47;5058875;28;20024;-79
2021/12/03 07:09:31;;;;;;;16.20;7.55;;;;;;;1.64;100.00;100226.53;5033282;28;20033;-79
2021/12/03 07:11:56;;;;;;;14.52;6.90;;;;;;;1.65;100.00;100225.50;5086096;28;20050;-79
2021/12/03 07:14:42;;;;;;;13.00;7.88;;;;;;;1.70;100.00;100224.75;5040391;28;20029;-78
2021/12/03 07:17:08;;;;;;;9.57;6.47;;;;;;;1.71;100.00;100219.03;5073014;28;20032;-78
2021/12/03 07:19:34;;;;;;;13.55;7.13;;;;;;;1.72;100.00;100212.47;5025567;28;20091;-77
2021/12/03 07:22:03;;;;;;;12.60;7.72;;;;;;;1.75;100.00;100202.94;5043233;28;20064;-77
2021/12/03 07:24:28;;;;;;;13.43;7.18;;;;;;;1.77;100.00;100200.81;5060055;28;20029;-73
2021/12/03 07:26:54;;;;;;;13.90;7.70;;;;;;;1.82;100.00;100186.41;5078372;28;20452;-74
2021/12/03 07:29:19;;;;;;;18.90;7.45;;;;;;;1.83;100.00;100175.19;5073184;28;20025;-74
2021/12/03 07:31:46;;;;;;;14.15;8.25;;;;;;;1.84;100.00;100171.38;5040269;28;20056;-74
2021/12/03 07:34:12;;;;;;;15.20;8.57;;;;;;;1.87;100.00;100168.16;5072484;28;20024;-73
2021/12/03 07:36:38;;;;;;;14.85;8.30;;;;;;;1.89;100.00;100171.47;5068507;28;20028;-74
2021/12/03 07:39:04;;;;;;;21.80;9.07;;;;;;;1.91;100.00;100166.56;5060176;28;20025;-73
2021/12/03 07:41:29;;;;;;;14.55;8.57;;;;;;;1.94;100.00;100157.03;5076223;28;20024;-73
2021/12/03 07:43:55;;;;;;;15.70;8.20;;;;;;;1.95;100.00;100156.81;5035854;28;20451;-73
2021/12/03 07:46:20;;;;;;;14.48;8.90;;;;;;;1.98;100.00;100156.31;5076189;28;20040;-73
2021/12/03 07:48:49;;;;;;;15.93;8.82;;;;;;;1.98;100.00;100161.78;5064645;28;20032;-73
2021/12/03 07:51:16;;;;;;;14.85;8.90;;;;;;;2.03;100.00;100155.56;5060821;28;20028;-74
2021/12/03 07:53:41;;;;;;;13.55;8.23;;;;;;;2.04;100.00;100154.50;5082649;28;20035;-74
2021/12/03 07:56:08;;;;;;;14.63;9.50;;;;;;;2.08;100.00;100161.13;5084072;28;20033;-73
2021/12/03 07:58:34;;;;;;;12.00;6.90;;;;;;;2.07;100.00;100153.19;5041616;28;20112;-73
2021/12/03 08:00:59;;;;;;;13.27;8.15;;;;;;;2.10;100.00;100141.72;5077096;28;20481;-73
2021/12/03 08:03:25;;;;;;;11.07;7.32;;;;;;;2.15;100.00;100141.81;5076854;28;20024;-73
2021/12/03 08:05:51;;;;;;;11.82;7.50;;;;;;;2.16;100.00;100147.03;5084707;28;20040;-73
2021/12/03 08:08:24;;;;;;;11.10;7.55;;;;;;;2.22;100.00;100147.94;5073281;28;20032;-73
2021/12/03 08:10:50;;;;;;;13.25;8.07;;;;;;;2.23;100.00;100135.94;5068713;28;20025;-73
2021/12/03 08:13:16;;;;;;;10.15;7.25;;;;;;;2.27;100.00;100133.50;5071205;28;20050;-73
2021/12/03 08:15:41;;;;;;;14.65;7.00;;;;;;;2.31;100.00;100126.44;5063043;28;20020;-73
2021/12/03 08:18:07;;;;;;;13.60;8.07;;;;;;;2.34;100.00;100124.06;5043747;28;20039;-73
2021/12/03 08:20:33;;;;;;;11.13;7.18;;;;;;;2.35;100.00;100120.22;5074978;28;20028;-73
2021/12/03 08:22:58;;;;;;;10.00;7.10;;;;;;;2.39;100.00;100104.94;5082172;28;20516;-73
2021/12/03 08:25:24;;;;;;;13.38;8.02;;;;;;;2.41;100.00;100091.81;5076049;28;20032;-73
2021/12/03 08:27:49;;;;;;;10.63;6.40;;;;;;;2.44;100.00;100098.69;5053033;28;20378;-73
2021/12/03 08:30:15;;;;;;;14.18;7.93;;;;;;;2.50;100.00;100094.94;5067862;28;20036;-73
2021/12/03 08:32:43;;;;;;;11.10;7.25;;;;;;;2.54;100.00;100089.81;5049181;28;20032;-72
2021/12/03 08:35:09;;;;;;;10.90;6.93;;;;;;;2.55;100.00;100094.22;5074141;28;20504;-73
2021/12/03 08:37:34;;;;;;;10.48;7.53;;;;;;;2.58;100.00;100083.56;5072099;28;20033;-73
2021/12/03 08:40:00;;;;;;;11.55;7.57;;;;;;;2.62;100.00;100081.16;5075575;28;20035;-73
2021/12/03 08:42:25;;;;;;;10.13;7.05;;;;;;;2.66;100.00;100079.56;5057200;28;20040;-73
2021/12/03 08:44:51;;;;;;;8.85;6.25;;;;;;;2.69;100.00;100084.56;5084971;28;20032;-73
2021/12/03 08:47:17;;;;;;;9.70;6.53;;;;;;;2.75;100.00;100074.47;5063108;28;20039;-73
2021/12/03 08:52:44;;;;;;;8.73;6.72;;;;;;;2.81;100.00;100062.50;5050120;28;20024;-73
2021/12/03 08:54:59;;;;;;;10.02;6.88;;;;;;;2.85;100.00;100058.19;5055003;28;20097;-73
2021/12/03 08:57:30;;;;;;;8.80;7.05;;;;;;;2.88;100.00;100057.66;5057010;28;20029;-73
2021/12/03 08:59:57;;;;;;;9.90;6.80;;;;;;;2.93;100.00;100056.91;5042911;28;20042;-73
2021/12/03 09:02:22;;;;;;;11.40;7.57;;;;;;;2.98;100.00;100043.22;5082701;28;20036;-72
2021/12/03 09:04:48;;;;;;;10.50;7.10;;;;;;;3.00;100.00;100046.56;5074994;28;20036;-73
2021/12/03 09:07:14;;;;;;;11.30;7.90;;;;;;;3.00;100.00;100033.66;5079074;28;20059;-73
2021/12/03 09:09:40;;;;;;;16.27;8.88;;;;;;;3.07;100.00;100038.97;5072638;28;20059;-73
2021/12/03 09:12:06;;;;;;;11.98;8.60;;;;;;;3.12;100.00;100028.03;5044165;28;20035;-73
2021/12/03 09:14:39;;;;;;;13.55;8.32;;;;;;;3.16;100.00;100039.34;5043568;28;20050;-73
2021/12/03 09:22:18;;;;;;;12.07;8.18;;;;;;;3.27;100.00;100022.75;5087743;28;20058;-73
2021/12/03 09:24:44;;;;;;;15.70;10.63;;;;;;;3.32;100.00;100038.44;5080292;28;20070;-74
2021/12/03 09:27:09;;;;;;;13.65;8.90;;;;;;;3.34;100.00;100034.34;5076629;28;20040;-73
2021/12/03 09:29:36;;;;;;;11.18;8.40;;;;;;;3.39;100.00;100030.00;5046868;28;20041;-73
2021/12/03 09:32:02;;;;;;;14.93;9.32;;;;;;;3.41;100.00;100038.81;5065826;28;20020;-73
2021/12/03 09:34:30;;;;;;;11.30;8.38;;;;;;;3.47;100.00;100024.03;5077768;28;20021;-73
2021/12/03 09:36:56;;;;;;;10.65;8.27;;;;;;;3.49;100.00;100032.84;5079706;28;20052;-73
2021/12/03 09:39:24;;;;;;;10.27;8.00;;;;;;;3.53;100.00;100028.50;5042935;28;20024;-73
2021/12/03 09:41:51;;;;;;;12.95;8.27;;;;;;;3.58;100.00;100040.34;5056408;28;20029;-73
2021/12/03 09:44:16;;;;;;;11.40;8.48;;;;;;;3.62;100.00;100042.56;5079489;28;20036;-74
2021/12/03 09:46:42;;;;;;;15.20;8.95;;;;;;;3.62;100.00;100046.16;5084648;28;20016;-74
2021/12/03 09:49:23;;;;;;;10.38;7.72;;;;;;;3.65;100.00;100044.78;5080698;28;20035;-73
2021/12/03 09:52:00;;;;;;;10.15;7.53;;;;;;;3.67;100.00;100048.94;5051897;28;20029;-73
2021/12/03 09:57:12;;;;;;;11.13;7.95;;;;;;;3.74;100.00;100032.28;5077118;28;20545;-74
2021/12/03 10:13:16;;;;;;;11.02;6.88;;;;;;;3.93;100.00;100003.31;5082128;28;20024;-73
2021/12/03 10:21:23;;;;;;;8.23;5.70;;;;;;;4.08;100.00;99983.38;5069329;28;20409;-74
2021/12/03 10:34:46;;;;;;;5.32;4.07;;;;;;;4.38;100.00;99943.44;5070317;28;20039;-73
2021/12/03 10:37:25;;;;;;;;;;;;;;;4.46;100.00;99940.19;5077129;28;20405;-73
2021/12/03 10:39:57;;;;;;;5.75;3.92;;;;;;;4.51;100.00;99929.16;5077019;28;19952;-73
2021/12/03 10:45:24;;;;;;;4.88;3.80;;;;;;;4.64;100.00;99930.63;5061637;28;20572;-74
2021/12/03 10:53:25;;;;;;;4.70;3.78;;;;;;;4.87;100.00;99923.81;5059242;28;20032;-73
2021/12/03 13:57:46;;;;;;;7.30;6.45;;;;;;;7.60;100.00;99575.53;5079782;28;20033;-75
2021/12/03 14:00:15;;;;;;;8.18;5.75;;;;;;;7.61;100.00;99566.94;5069993;28;20032;-75
2021/12/03 14:40:50;;;;;;;10.77;7.93;;;;;;;8.11;100.00;99549.06;5077394;28;20086;-76
2021/12/03 14:56:09;;;;;;;7.22;6.43;;;;;;;8.27;100.00;99518.13;5079648;28;20043;-76
2021/12/03 15:09:11;;;;;;;10.20;6.82;;;;;;;8.44;100.00;99511.19;5076020;28;20067;-76
2021/12/03 15:20:17;;;;;;;8.52;5.88;;;;;;;8.50;100.00;99508.06;5082754;28;20029;-76
2021/12/03 15:35:58;;;;;;;6.63;5.47;;;;;;;8.58;100.00;99509.31;5070425;28;20064;-76
2021/12/03 15:38:36;;;;;;;6.57;5.70;;;;;;;8.56;100.00;99519.84;5074232;28;20028;-76
2021/12/03 15:57:45;;;;;;;8.05;5.20;;;;;;;8.59;100.00;99515.66;5048932;28;20243;-76
2021/12/03 16:06:15;;;;;;;9.05;5.80;;;;;;;8.62;100.00;99506.72;5075214;28;20056;-76
2021/12/03 16:08:41;;;;;;;9.57;5.55;;;;;;;8.60;100.00;99504.25;5084177;28;20040;-75
2021/12/03 16:21:32;;;;;;;7.00;4.40;;;;;;;8.59;100.00;99508.16;5079657;28;20554;-75
2021/12/03 16:27:09;;;;;;;7.13;4.53;;;;;;;8.61;100.00;99502.31;5073419;28;20504;-76
2021/12/03 16:43:42;;;;;;;5.97;4.13;;;;;;;8.64;100.00;99505.31;5080382;28;20602;-76
2021/12/03 16:46:25;;;;;;;5.70;4.30;;;;;;;8.63;100.00;99506.41;5078606;28;20032;-76
2021/12/03 16:56:50;;;;;;;7.80;5.45;;;;;;;8.61;100.00;99489.31;5078750;28;20071;-76
2021/12/03 16:59:16;;;;;;;11.00;6.53;;;;;;;8.60;100.00;99498.72;5086541;28;20043;-77
2021/12/03 17:02:30;;;;;;;7.80;6.28;;;;;;;8.62;100.00;99504.78;5077737;28;20033;-76
2021/12/03 17:04:41;;;;;;;9.77;5.93;;;;;;;8.61;100.00;99499.53;5075337;28;20101;-76
2021/12/03 17:10:09;;;;;;;8.40;6.15;;;;;;;8.61;100.00;99511.44;5077353;28;20370;-76
2021/12/03 18:00:05;;;;;;;6.32;4.55;;;;;;;8.55;100.00;99462.84;5076261;28;19912;-78
2021/12/03 18:08:28;;;;;;;6.05;4.47;;;;;;;8.54;100.00;99446.56;5069619;28;20025;-77
2021/12/03 18:51:18;;;;;;;13.20;6.95;;;;;;;8.61;100.00;99425.66;5056095;28;20047;-77
2021/12/03 18:56:28;;;;;;;15.32;6.22;;;;;;;8.63;100.00;99401.22;5055670;28;20044;-78
2021/12/03 18:59:05;;;;;;;13.32;6.40;;;;;;;8.64;100.00;99404.84;5042214;28;20115;-77
2021/12/03 19:01:52;;;;;;;14.30;5.80;;;;;;;8.66;100.00;99402.56;5042487;28;20036;-77
2021/12/03 19:04:33;;;;;;;13.95;6.68;;;;;;;8.67;100.00;99396.75;5033182;28;20040;-77
2021/12/03 19:07:30;;;;;;;18.92;6.80;;;;;;;8.70;100.00;99398.06;5044917;28;20073;-77
2021/12/03 19:10:15;;;;;;;19.45;5.90;;;;;;;8.73;100.00;99392.72;5051523;28;20400;-77